Time;durP1;ratioP1;P1;durP2;ratioP2;P2;SDS_P1;SDS_P2;PMS_P1;PMS_P2;Temp;Humidity;BMP_temperature;BMP_pressure;BME280_temperature;BME280_humidity;BME280_pressure;Samples;Min_cycle;Max_cycle;Signal;HPM_P1;HPM_P2
2022/11/30 00:00:04;;;;;;;123.10;59.03;;;;;;;3.07;100.00;153310.22;5027637;28;20064;-75
2022/11/30 00:02:37;;;;;;;127.43;56.55;;;;;;;3.05;100.00;153306.44;5012021;28;20037;-74
2022/11/30 00:05:03;;;;;;;126.93;57.05;;;;;;;3.06;100.00;153308.97;5026332;28;20512;-76
2022/11/30 00:07:29;;;;;;;124.65;58.42;;;;;;;3.05;100.00;153305.13;5010804;28;20029;-76
2022/11/30 00:09:54;;;;;;;122.57;58.05;;;;;;;3.04;100.00;153302.59;5020806;28;20135;-76
2022/11/30 00:12:20;;;;;;;134.15;59.13;;;;;;;3.00;100.00;153292.41;5021694;28;20047;-76
2022/11/30 00:14:45;;;;;;;128.43;58.65;;;;;;;3.09;100.00;153315.38;5027119;28;20494;-76
2022/11/30 00:17:11;;;;;;;123.90;59.08;;;;;;;3.04;100.00;153303.84;5024181;28;20044;-76
2022/11/30 00:19:37;;;;;;;123.47;58.42;;;;;;;3.05;100.00;153305.13;5010877;28;20029;-73
2022/11/30 00:22:02;;;;;;;124.57;57.38;;;;;;;3.08;100.00;153312.78;5022557;28;20072;-76
2022/11/30 00:24:28;;;;;;;121.30;57.58;;;;;;;3.07;100.00;153311.53;5010227;28;20063;-76
2022/11/30 00:26:53;;;;;;;125.78;58.60;;;;;;;3.09;100.00;153315.38;5028341;28;20037;-76
2022/11/30 00:29:19;;;;;;;127.93;58.75;;;;;;;3.07;100.00;153311.53;5005894;28;20026;-76
2022/11/30 00:31:45;;;;;;;132.60;59.33;;;;;;;3.08;100.00;153312.78;5028885;28;20524;-76
2022/11/30 00:34:11;;;;;;;124.85;57.95;;;;;;;3.10;100.00;153319.16;5011963;28;20040;-76
2022/11/30 00:36:36;;;;;;;122.68;58.33;;;;;;;3.06;100.00;153307.69;5021606;28;20036;-76
2022/11/30 00:39:02;;;;;;;125.75;58.35;;;;;;;3.05;100.00;153305.13;5032199;28;20507;-76
2022/11/30 00:41:28;;;;;;;127.82;56.97;;;;;;;3.02;100.00;153298.75;5031503;28;20087;-76
2022/11/30 00:43:53;;;;;;;130.05;58.47;;;;;;;3.04;100.00;153302.59;5063337;28;20404;-76
2022/11/30 00:46:19;;;;;;;126.13;57.83;;;;;;;3.00;100.00;153293.66;5040569;28;20127;-76
2022/11/30 00:48:45;;;;;;;119.93;57.17;;;;;;;3.06;100.00;153308.97;5033707;28;20043;-76
2022/11/30 00:51:11;;;;;;;127.05;58.25;;;;;;;3.04;100.00;153302.59;5007017;28;20041;-76
2022/11/30 00:53:40;;;;;;;121.00;56.25;;;;;;;3.07;100.00;153311.53;5025514;28;20037;-76
2022/11/30 00:56:06;;;;;;;117.20;55.58;;;;;;;3.07;100.00;153311.53;5016315;28;20055;-73
2022/11/30 00:58:32;;;;;;;120.65;56.28;;;;;;;3.14;100.00;153326.84;5029897;28;20449;-75
2022/11/30 01:00:57;;;;;;;117.65;55.47;;;;;;;3.11;100.00;153320.47;5033491;28;20040;-76
2022/11/30 01:03:23;;;;;;;114.55;55.20;;;;;;;3.10;100.00;153317.91;5032330;28;20041;-76
2022/11/30 01:05:49;;;;;;;122.15;56.17;;;;;;;3.05;100.00;153306.44;5010684;28;20064;-76
2022/11/30 01:08:14;;;;;;;120.82;56.55;;;;;;;3.07;100.00;153311.53;5031714;28;20079;-76
2022/11/30 01:10:42;;;;;;;119.15;57.00;;;;;;;3.05;100.00;153305.13;5022317;28;20028;-76
2022/11/30 01:13:08;;;;;;;122.47;57.45;;;;;;;3.06;100.00;153307.69;5039742;28;20059;-76
2022/11/30 01:15:39;;;;;;;123.00;57.17;;;;;;;3.04;100.00;153303.84;5033590;28;20029;-76
2022/11/30 01:18:05;;;;;;;119.63;56.80;;;;;;;3.08;100.00;153312.78;5009335;28;20041;-76
2022/11/30 01:20:31;;;;;;;119.30;56.00;;;;;;;3.08;100.00;153314.06;5020517;28;20036;-76
2022/11/30 01:22:56;;;;;;;126.75;57.58;;;;;;;3.07;100.00;153311.53;5016005;28;20044;-76
2022/11/30 01:25:22;;;;;;;120.95;57.67;;;;;;;3.03;100.00;153300.03;5031851;28;20091;-76
2022/11/30 01:27:48;;;;;;;123.60;58.63;;;;;;;2.99;100.00;153291.09;5030894;28;20083;-76
2022/11/30 01:30:14;;;;;;;127.13;57.83;;;;;;;2.98;100.00;153288.56;5031506;28;20506;-76
2022/11/30 01:32:40;;;;;;;119.47;56.08;;;;;;;3.02;100.00;153298.75;5032469;28;20043;-76
2022/11/30 01:35:06;;;;;;;118.43;56.70;;;;;;;2.97;100.00;153285.97;5016021;28;20407;-76
2022/11/30 01:37:32;;;;;;;127.15;58.83;;;;;;;3.00;100.00;153292.41;5039479;28;20057;-76
2022/11/30 01:39:57;;;;;;;130.32;58.42;;;;;;;2.97;100.00;153284.72;5028720;28;20080;-76
2022/11/30 01:42:23;;;;;;;123.63;58.45;;;;;;;3.00;100.00;153292.41;5014282;28;20037;-76
2022/11/30 01:44:57;;;;;;;122.10;56.80;;;;;;;2.99;100.00;153291.09;5013095;28;20067;-76
2022/11/30 01:47:39;;;;;;;129.88;57.33;;;;;;;3.02;100.00;153297.50;5033989;28;20025;-76
2022/11/30 01:50:12;;;;;;;132.68;58.63;;;;;;;2.98;100.00;153288.56;5038353;28;20033;-76
2022/11/30 01:52:42;;;;;;;117.03;55.05;;;;;;;3.01;100.00;153294.91;5026139;28;20044;-76
2022/11/30 01:55:19;;;;;;;121.40;56.67;;;;;;;3.00;100.00;153293.66;5008309;28;20502;-76
2022/11/30 01:57:53;;;;;;;128.95;57.20;;;;;;;3.00;100.00;153292.41;4997116;28;20029;-76
2022/11/30 02:00:19;;;;;;;126.75;58.72;;;;;;;2.99;100.00;153291.09;4998039;28;20033;-75
2022/11/30 02:03:01;;;;;;;123.47;58.00;;;;;;;3.00;100.00;153293.66;5032962;28;20122;-75
2022/11/30 02:05:27;;;;;;;131.48;58.60;;;;;;;2.98;100.00;153287.28;5015394;28;20605;-75
2022/11/30 02:07:53;;;;;;;122.05;56.80;;;;;;;2.99;100.00;153289.81;5013044;28;20668;-75
2022/11/30 02:10:28;;;;;;;129.77;59.63;;;;;;;2.99;100.00;153291.09;4997916;28;20028;-75
2022/11/30 02:13:22;;;;;;;130.20;58.97;;;;;;;3.03;100.00;153301.34;5033359;28;20068;-76
2022/11/30 02:15:56;;;;;;;;;;;;;;;2.98;100.00;153288.56;5028447;23;20036;-77
2022/11/30 02:18:36;;;;;;;134.93;59.35;;;;;;;2.97;100.00;153285.97;5051851;28;19924;-75
2022/11/30 02:21:10;;;;;;;137.30;60.45;;;;;;;3.02;100.00;153298.75;4997820;28;20041;-76
2022/11/30 02:26:48;;;;;;;134.95;60.35;;;;;;;2.98;100.00;153287.28;5074438;28;20040;-77
2022/11/30 02:29:28;;;;;;;144.48;63.15;;;;;;;2.98;100.00;153287.28;5086924;28;20123;-76
2022/11/30 02:32:11;;;;;;;146.23;62.90;;;;;;;3.01;100.00;153294.91;5074407;28;20584;-77
2022/11/30 02:34:39;;;;;;;146.55;63.28;;;;;;;2.97;100.00;153284.72;5051695;28;20032;-77
2022/11/30 02:37:08;;;;;;;138.32;61.35;;;;;;;2.99;100.00;153291.09;5063168;28;20393;-77
2022/11/30 02:39:33;;;;;;;152.75;64.57;;;;;;;2.97;100.00;153285.97;5060440;28;20048;-77
2022/11/30 02:41:59;;;;;;;144.77;62.35;;;;;;;2.86;100.00;153259.22;5047332;28;20152;-77
2022/11/30 02:44:26;;;;;;;147.85;62.05;;;;;;;2.87;100.00;153260.47;5062355;28;20636;-77
2022/11/30 02:46:59;;;;;;;149.10;65.47;;;;;;;3.02;100.00;153298.75;5046268;28;20056;-77
2022/11/30 02:49:31;;;;;;;154.30;61.03;;;;;;;3.04;100.00;153302.59;5041550;28;20033;-76
2022/11/30 02:51:58;;;;;;;137.85;61.92;;;;;;;2.99;100.00;153289.81;5054659;28;20032;-77
2022/11/30 02:54:24;;;;;;;145.43;63.67;;;;;;;2.97;100.00;153285.97;5056786;28;20043;-76
2022/11/30 02:56:50;;;;;;;147.73;63.70;;;;;;;2.94;100.00;153278.34;5051031;28;20536;-76
2022/11/30 02:59:15;;;;;;;151.35;63.85;;;;;;;2.94;100.00;153278.34;5039230;28;20044;-77
2022/11/30 03:01:41;;;;;;;145.15;62.70;;;;;;;2.91;100.00;153270.69;5029431;28;20058;-77
2022/11/30 03:04:07;;;;;;;141.30;63.60;;;;;;;2.97;100.00;153284.72;5073853;28;20092;-76
2022/11/30 03:06:33;;;;;;;144.95;63.90;;;;;;;2.98;100.00;153287.28;5051051;28;20045;-76
2022/11/30 03:08:58;;;;;;;143.77;62.17;;;;;;;2.97;100.00;153285.97;5069899;28;20058;-76
2022/11/30 03:11:24;;;;;;;156.30;63.92;;;;;;;2.98;100.00;153287.28;5050253;28;20102;-76
2022/11/30 03:13:50;;;;;;;155.40;64.82;;;;;;;2.92;100.00;153274.53;5052753;28;20047;-78
2022/11/30 03:16:16;;;;;;;145.52;63.10;;;;;;;2.97;100.00;153285.97;5053080;28;20036;-77
2022/11/30 03:18:41;;;;;;;143.82;62.60;;;;;;;3.01;100.00;153296.19;5051992;28;20044;-75
2022/11/30 03:21:09;;;;;;;144.48;62.63;;;;;;;3.05;100.00;153306.44;5044581;28;20040;-78
2022/11/30 03:23:35;;;;;;;152.55;64.72;;;;;;;2.98;100.00;153288.56;5056539;28;20470;-76
2022/11/30 03:26:02;;;;;;;145.05;63.22;;;;;;;2.96;100.00;153283.47;5034287;28;20042;-77
2022/11/30 03:28:28;;;;;;;150.60;64.75;;;;;;;2.95;100.00;153280.88;5058116;28;20040;-77
2022/11/30 03:30:53;;;;;;;145.43;62.10;;;;;;;3.00;100.00;153292.41;5032539;28;20032;-76
2022/11/30 03:33:19;;;;;;;150.15;63.72;;;;;;;2.99;100.00;153291.09;5026313;28;20043;-78
2022/11/30 03:35:45;;;;;;;150.77;62.83;;;;;;;2.99;100.00;153291.09;5051617;28;20035;-76
2022/11/30 03:38:10;;;;;;;151.32;63.22;;;;;;;2.95;100.00;153279.63;5061503;28;20393;-77
2022/11/30 03:40:36;;;;;;;159.68;65.03;;;;;;;2.99;100.00;153289.81;5036123;28;20398;-78
2022/11/30 03:43:03;;;;;;;146.25;64.78;;;;;;;2.99;100.00;153289.81;5039611;28;20402;-76
2022/11/30 03:45:29;;;;;;;157.10;66.70;;;;;;;2.97;100.00;153284.72;5069933;28;20524;-77
2022/11/30 03:47:54;;;;;;;158.77;63.25;;;;;;;3.04;100.00;153303.84;5049436;28;20107;-76
2022/11/30 03:50:21;;;;;;;156.27;63.10;;;;;;;3.02;100.00;153297.50;5059287;28;20044;-76
2022/11/30 03:52:47;;;;;;;154.85;62.08;;;;;;;2.98;100.00;153287.28;5050299;28;20036;-76
2022/11/30 03:55:13;;;;;;;157.35;62.33;;;;;;;2.99;100.00;153289.81;5048372;28;20035;-77
2022/11/30 03:57:38;;;;;;;153.40;64.55;;;;;;;2.99;100.00;153291.09;5045703;28;20127;-76
2022/11/30 04:00:05;;;;;;;164.00;65.80;;;;;;;2.96;100.00;153283.47;5029150;28;20048;-76
2022/11/30 04:02:37;;;;;;;;;;;;;;;2.97;100.00;153285.97;5070821;28;20032;-77
2022/11/30 04:05:03;;;;;;;154.35;64.68;;;;;;;2.98;100.00;153287.28;5048330;28;19942;-77
2022/11/30 04:07:28;;;;;;;154.35;63.45;;;;;;;2.98;100.00;153287.28;5063265;28;20028;-76
2022/11/30 04:09:54;;;;;;;162.20;64.40;;;;;;;2.99;100.00;153291.09;5056870;28;20043;-76
2022/11/30 04:12:19;;;;;;;158.35;64.50;;;;;;;2.97;100.00;153284.72;5054581;28;20485;-76
2022/11/30 04:14:45;;;;;;;166.52;66.07;;;;;;;2.96;100.00;153283.47;5044831;28;20115;-76
2022/11/30 04:17:11;;;;;;;164.27;64.40;;;;;;;3.00;100.00;153293.66;5070551;28;20133;-76
2022/11/30 04:19:36;;;;;;;163.60;66.05;;;;;;;2.96;100.00;153283.47;5031738;28;20037;-76
2022/11/30 04:22:02;;;;;;;152.95;62.22;;;;;;;2.95;100.00;153280.88;5036114;28;20444;-76
2022/11/30 04:24:27;;;;;;;169.13;66.30;;;;;;;2.96;100.00;153283.47;5055753;28;20032;-77
2022/11/30 04:26:53;;;;;;;154.80;65.03;;;;;;;3.01;100.00;153296.19;5051297;28;20512;-76
2022/11/30 04:29:18;;;;;;;162.98;63.10;;;;;;;3.04;100.00;153302.59;5033614;28;20044;-76
2022/11/30 04:31:44;;;;;;;159.07;62.90;;;;;;;2.98;100.00;153287.28;5032869;28;20486;-77
2022/11/30 04:34:09;;;;;;;157.88;62.72;;;;;;;2.98;100.00;153287.28;5060137;28;20028;-76
2022/11/30 04:36:35;;;;;;;147.38;61.30;;;;;;;3.02;100.00;153297.50;5032038;28;20032;-76
2022/11/30 04:39:00;;;;;;;153.05;61.60;;;;;;;3.00;100.00;153292.41;5051892;28;20040;-76
2022/11/30 04:41:26;;;;;;;152.93;62.88;;;;;;;2.95;100.00;153279.63;5045537;28;20044;-76
2022/11/30 04:43:51;;;;;;;157.43;63.63;;;;;;;2.86;100.00;153259.22;5045305;28;20033;-77
2022/11/30 04:46:17;;;;;;;157.65;63.40;;;;;;;2.95;100.00;153280.88;5063077;28;20498;-79
2022/11/30 04:48:43;;;;;;;155.50;61.00;;;;;;;2.92;100.00;153274.53;5032651;28;20035;-76
2022/11/30 04:51:08;;;;;;;158.88;64.78;;;;;;;3.00;100.00;153292.41;5047365;28;20058;-77
2022/11/30 04:53:36;;;;;;;152.75;60.50;;;;;;;3.03;100.00;153300.03;5064274;28;20032;-76
2022/11/30 04:56:06;;;;;;;158.30;61.05;;;;;;;2.98;100.00;153288.56;5035784;28;20762;-78
2022/11/30 04:58:33;;;;;;;155.10;61.20;;;;;;;3.03;100.00;153301.34;5034659;28;20032;-77
2022/11/30 05:00:58;;;;;;;154.20;61.50;;;;;;;3.06;100.00;153308.97;5045312;28;20072;-75
2022/11/30 05:03:24;;;;;;;151.48;59.88;;;;;;;3.04;100.00;153303.84;5049096;28;20094;-77
2022/11/30 05:05:50;;;;;;;153.40;63.38;;;;;;;3.02;100.00;153297.50;5064136;28;20040;-77
2022/11/30 05:08:15;;;;;;;149.35;60.28;;;;;;;3.01;100.00;153296.19;5042453;28;20111;-76
2022/11/30 05:10:41;;;;;;;145.63;60.25;;;;;;;3.01;100.00;153294.91;5034301;28;20052;-77
2022/11/30 05:13:06;;;;;;;161.23;62.88;;;;;;;3.01;100.00;153296.19;5047382;28;20063;-77
2022/11/30 05:15:32;;;;;;;147.57;61.53;;;;;;;2.98;100.00;153288.56;5034980;28;20043;-77
2022/11/30 05:18:00;;;;;;;143.75;60.65;;;;;;;2.95;100.00;153279.63;5050641;28;20051;-77
2022/11/30 05:20:27;;;;;;;148.48;58.13;;;;;;;3.00;100.00;153293.66;5055662;28;20059;-77
2022/11/30 05:22:52;;;;;;;142.85;59.65;;;;;;;3.03;100.00;153300.03;5049369;28;20539;-77
2022/11/30 05:25:18;;;;;;;144.15;59.03;;;;;;;3.00;100.00;153293.66;5062105;28;20036;-78
2022/11/30 05:27:43;;;;;;;161.23;61.70;;;;;;;2.97;100.00;153285.97;5042897;28;20032;-76
2022/11/30 05:30:11;;;;;;;151.70;58.35;;;;;;;3.01;100.00;153296.19;5050544;28;20113;-77
2022/11/30 05:32:37;;;;;;;143.98;60.53;;;;;;;2.98;100.00;153288.56;5056409;28;20029;-76
2022/11/30 05:35:03;;;;;;;148.80;61.47;;;;;;;3.04;100.00;153303.84;5035938;28;20036;-77
2022/11/30 05:37:28;;;;;;;145.25;59.03;;;;;;;2.97;100.00;153285.97;5070354;28;20036;-77
2022/11/30 05:39:54;;;;;;;137.25;54.63;;;;;;;3.00;100.00;153292.41;5069081;28;20112;-77
2022/11/30 05:42:19;;;;;;;153.00;58.88;;;;;;;3.01;100.00;153296.19;5055003;28;20081;-78
2022/11/30 05:44:46;;;;;;;144.98;55.90;;;;;;;3.00;100.00;153292.41;5049812;28;20434;-77
2022/11/30 05:47:12;;;;;;;147.07;59.08;;;;;;;3.00;100.00;153293.66;5033815;28;20032;-77
2022/11/30 05:49:38;;;;;;;151.05;59.95;;;;;;;3.03;100.00;153301.34;5073963;28;20036;-77
2022/11/30 05:52:04;;;;;;;151.90;58.47;;;;;;;3.01;100.00;153294.91;5051780;28;20046;-78
2022/11/30 05:54:29;;;;;;;155.60;61.47;;;;;;;3.00;100.00;153293.66;5040702;28;20059;-80
2022/11/30 05:56:55;;;;;;;155.73;60.75;;;;;;;2.99;100.00;153291.09;5054748;28;20046;-77
2022/11/30 05:59:22;;;;;;;144.60;57.60;;;;;;;3.06;100.00;153307.69;5055764;28;20048;-77
2022/11/30 06:01:50;;;;;;;151.52;60.08;;;;;;;3.05;100.00;153306.44;5053299;28;20032;-76
2022/11/30 06:04:16;;;;;;;153.45;58.45;;;;;;;3.04;100.00;153303.84;5056046;28;20055;-77
2022/11/30 06:06:42;;;;;;;152.88;58.08;;;;;;;3.03;100.00;153301.34;5098696;28;20043;-78
2022/11/30 06:09:07;;;;;;;149.93;56.17;;;;;;;3.02;100.00;153298.75;5109148;28;20035;-76
2022/11/30 06:11:33;;;;;;;145.13;58.20;;;;;;;3.06;100.00;153307.69;5074490;28;20125;-76
2022/11/30 06:13:59;;;;;;;140.35;56.63;;;;;;;3.08;100.00;153312.78;5084590;28;20389;-77
2022/11/30 06:16:24;;;;;;;153.30;57.17;;;;;;;3.08;100.00;153312.78;5087835;28;20143;-76
2022/11/30 06:18:51;;;;;;;147.20;57.42;;;;;;;3.07;100.00;153310.22;5071507;28;20198;-76
2022/11/30 06:21:17;;;;;;;151.77;58.65;;;;;;;3.11;100.00;153321.75;5097063;28;20500;-76
2022/11/30 06:23:42;;;;;;;151.05;57.63;;;;;;;3.06;100.00;153308.97;5087822;28;20027;-76
2022/11/30 06:26:10;;;;;;;146.23;55.95;;;;;;;3.07;100.00;153311.53;5097244;28;20039;-76
2022/11/30 06:28:37;;;;;;;151.48;57.85;;;;;;;3.08;100.00;153312.78;5080216;28;20039;-77
2022/11/30 06:31:04;;;;;;;147.93;58.17;;;;;;;3.07;100.00;153310.22;5093686;28;20032;-77
2022/11/30 06:33:30;;;;;;;144.45;55.80;;;;;;;3.06;100.00;153307.69;5110923;28;20039;-79
2022/11/30 06:35:56;;;;;;;137.88;54.85;;;;;;;3.05;100.00;153306.44;5090462;28;20034;-79
2022/11/30 06:38:23;;;;;;;143.70;55.80;;;;;;;3.09;100.00;153316.63;5075225;28;20034;-79
2022/11/30 06:40:49;;;;;;;139.93;55.60;;;;;;;3.07;100.00;153310.22;5107027;28;20386;-77
2022/11/30 06:43:14;;;;;;;145.07;58.05;;;;;;;3.05;100.00;153305.13;5112441;28;20078;-77
2022/11/30 06:45:44;;;;;;;145.20;55.95;;;;;;;3.07;100.00;153310.22;5103630;28;20086;-78
2022/11/30 06:48:10;;;;;;;132.98;53.83;;;;;;;3.10;100.00;153317.91;5102405;28;20073;-78
2022/11/30 06:50:36;;;;;;;134.63;53.47;;;;;;;3.16;100.00;153331.94;5114346;28;20437;-78
2022/11/30 06:53:02;;;;;;;142.18;55.33;;;;;;;3.16;100.00;153333.22;5092167;28;20053;-77
2022/11/30 06:59:47;;;;;;;116.05;49.80;;;;;;;3.14;100.00;153326.84;5121902;28;20037;-85
2022/11/30 07:02:14;;;;;;;106.07;47.97;;;;;;;3.17;100.00;153334.53;5108518;28;20035;-83
2022/11/30 07:04:41;;;;;;;108.72;47.65;;;;;;;3.16;100.00;153331.94;5097734;28;20112;-84
2022/11/30 07:07:07;;;;;;;108.10;48.63;;;;;;;3.11;100.00;153321.75;5087157;28;20056;-84
2022/11/30 07:09:33;;;;;;;107.00;47.03;;;;;;;3.10;100.00;153319.16;5091318;28;20063;-82
2022/11/30 07:12:00;;;;;;;108.38;48.50;;;;;;;3.05;100.00;153306.44;5067038;28;20031;-82
2022/11/30 07:14:26;;;;;;;106.15;46.78;;;;;;;3.03;100.00;153300.03;5085136;28;20084;-83
2022/11/30 07:16:51;;;;;;;103.07;47.08;;;;;;;3.06;100.00;153307.69;5084579;28;20444;-85
2022/11/30 07:19:17;;;;;;;100.90;46.80;;;;;;;3.04;100.00;153302.59;5088572;28;20038;-83
2022/11/30 07:21:43;;;;;;;101.00;46.95;;;;;;;2.95;100.00;153279.63;5073087;28;20091;-83
2022/11/30 07:26:57;;;;;;;107.15;48.90;;;;;;;3.07;100.00;153310.22;5097955;28;20031;-84
2022/11/30 07:29:23;;;;;;;105.88;48.53;;;;;;;3.04;100.00;153302.59;5085450;28;20486;-84
2022/11/30 07:31:52;;;;;;;93.63;45.13;;;;;;;3.06;100.00;153307.69;5088711;28;20050;-82
2022/11/30 07:34:18;;;;;;;100.57;48.60;;;;;;;3.04;100.00;153303.84;5087773;28;20827;-82
2022/11/30 07:36:44;;;;;;;99.63;48.17;;;;;;;3.04;100.00;153302.59;5086182;28;20032;-81
2022/11/30 07:39:11;;;;;;;102.20;47.50;;;;;;;3.06;100.00;153308.97;5068490;28;20028;-82
2022/11/30 07:41:38;;;;;;;98.45;46.25;;;;;;;3.09;100.00;153316.63;5098037;28;20039;-83
2022/11/30 07:44:04;;;;;;;99.47;46.88;;;;;;;2.98;100.00;153288.56;5100640;28;20027;-82
2022/11/30 07:46:32;;;;;;;97.05;46.58;;;;;;;3.07;100.00;153311.53;5090401;28;20039;-81
2022/11/30 07:48:58;;;;;;;101.22;47.00;;;;;;;2.88;100.00;153263.00;5081225;28;20036;-80
2022/11/30 07:51:23;;;;;;;90.80;44.28;;;;;;;3.05;100.00;153305.13;5073138;28;20051;-83
2022/11/30 07:53:49;;;;;;;87.30;44.00;;;;;;;3.05;100.00;153305.13;5099109;28;20039;-81
2022/11/30 07:56:19;;;;;;;89.70;46.58;;;;;;;2.98;100.00;153288.56;5084030;28;20503;-82
2022/11/30 07:58:45;;;;;;;90.70;43.75;;;;;;;2.97;100.00;153284.72;5082486;28;20036;-80
2022/11/30 08:01:14;;;;;;;88.88;43.78;;;;;;;3.05;100.00;153305.13;5073464;28;20043;-82
2022/11/30 08:03:39;;;;;;;88.68;42.53;;;;;;;2.96;100.00;153283.47;5068561;28;20036;-83
2022/11/30 08:06:10;;;;;;;82.93;42.80;;;;;;;2.96;100.00;153283.47;5080637;28;20544;-82
2022/11/30 08:08:38;;;;;;;88.70;43.60;;;;;;;2.91;100.00;153270.69;5092756;28;20076;-81
2022/11/30 08:11:05;;;;;;;85.18;43.35;;;;;;;3.00;100.00;153292.41;5094722;28;20046;-81
2022/11/30 08:13:32;;;;;;;86.72;44.10;;;;;;;3.09;100.00;153315.38;5097874;28;20027;-79
2022/11/30 08:16:02;;;;;;;94.07;42.72;;;;;;;3.07;100.00;153311.53;5077193;28;20043;-81
2022/11/30 08:18:28;;;;;;;86.63;43.58;;;;;;;3.12;100.00;153323.00;5072327;28;20042;-82
2022/11/30 08:21:04;;;;;;;92.85;45.08;;;;;;;3.05;100.00;153306.44;5084499;28;20035;-81
2022/11/30 08:23:33;;;;;;;85.70;42.47;;;;;;;3.07;100.00;153311.53;5097209;28;20059;-80
2022/11/30 08:26:05;;;;;;;90.40;47.80;;;;;;;3.06;100.00;153308.97;5106689;28;20127;-81
2022/11/30 08:28:35;;;;;;;81.97;42.53;;;;;;;3.03;100.00;153301.34;5088765;28;20070;-81
2022/11/30 08:31:03;;;;;;;81.30;40.90;;;;;;;3.08;100.00;153312.78;5073121;28;20134;-82
2022/11/30 08:33:30;;;;;;;79.93;39.33;;;;;;;3.10;100.00;153319.16;5074235;28;20039;-80
2022/11/30 08:36:18;;;;;;;80.63;40.50;;;;;;;3.20;100.00;153342.16;5093872;28;20039;-81
2022/11/30 08:38:44;;;;;;;72.50;38.28;;;;;;;3.04;100.00;153303.84;5070096;28;20119;-81
2022/11/30 08:41:12;;;;;;;70.57;38.67;;;;;;;3.09;100.00;153316.63;5080294;28;20043;-80
2022/11/30 08:43:38;;;;;;;72.28;38.35;;;;;;;3.26;100.00;153358.75;5087305;28;20035;-81
2022/11/30 08:46:06;;;;;;;63.50;36.78;;;;;;;3.12;100.00;153323.00;5095132;28;20445;-82
2022/11/30 08:48:32;;;;;;;68.93;37.10;;;;;;;3.20;100.00;153342.16;5096139;28;20110;-83
2022/11/30 08:51:00;;;;;;;60.58;35.08;;;;;;;3.21;100.00;153345.97;5099182;28;20035;-83
2022/11/30 08:53:26;;;;;;;58.95;34.05;;;;;;;3.19;100.00;153339.63;5100116;28;20157;-84
2022/11/30 08:56:00;;;;;;;57.90;33.83;;;;;;;3.20;100.00;153342.16;5072571;28;20063;-85
2022/11/30 08:58:29;;;;;;;59.00;34.30;;;;;;;3.10;100.00;153319.16;5106452;28;20103;-81
2022/11/30 09:01:17;;;;;;;67.97;34.38;;;;;;;3.13;100.00;153325.56;5093260;28;20035;-82
2022/11/30 09:03:44;;;;;;;63.35;34.88;;;;;;;3.26;100.00;153357.50;5077186;28;20030;-83
2022/11/30 09:06:17;;;;;;;63.65;36.30;;;;;;;3.29;100.00;153365.13;5082673;28;20040;-82
2022/11/30 09:08:45;;;;;;;62.28;36.10;;;;;;;3.26;100.00;153358.75;5071605;28;20020;-81
2022/11/30 09:11:14;;;;;;;60.40;33.58;;;;;;;3.28;100.00;153362.59;5078544;28;20039;-84
2022/11/30 09:13:41;;;;;;;54.08;32.03;;;;;;;3.31;100.00;153371.53;5080553;28;20035;-82
2022/11/30 09:16:07;;;;;;;59.30;34.53;;;;;;;3.28;100.00;153363.88;5092618;28;20131;-82
2022/11/30 09:18:33;;;;;;;54.67;32.92;;;;;;;3.31;100.00;153370.22;5091229;28;20085;-81
2022/11/30 09:21:08;;;;;;;54.85;32.33;;;;;;;3.31;100.00;153371.53;5090935;28;20031;-80
2022/11/30 09:23:34;;;;;;;49.88;31.52;;;;;;;3.28;100.00;153362.59;5099906;28;20036;-82
2022/11/30 09:26:02;;;;;;;51.83;31.10;;;;;;;3.33;100.00;153374.06;5108205;28;20032;-83
2022/11/30 09:28:29;;;;;;;58.42;33.17;;;;;;;3.35;100.00;153380.44;5081344;28;20119;-80
2022/11/30 09:31:06;;;;;;;46.25;29.38;;;;;;;3.41;100.00;153395.78;5104788;28;20036;-82
2022/11/30 09:33:32;;;;;;;49.70;30.40;;;;;;;3.35;100.00;153379.19;5096335;28;20028;-79
2022/11/30 09:36:00;;;;;;;47.40;30.35;;;;;;;3.35;100.00;153380.44;5083208;28;20421;-79
2022/11/30 09:38:26;;;;;;;49.78;29.88;;;;;;;3.41;100.00;153395.78;5099587;28;20481;-80
2022/11/30 09:41:27;;;;;;;46.97;29.20;;;;;;;3.38;100.00;153386.84;5075546;28;20062;-81
2022/11/30 09:44:24;;;;;;;48.10;29.17;;;;;;;3.38;100.00;153388.13;5075118;28;20051;-83
2022/11/30 09:47:27;;;;;;;49.13;30.48;;;;;;;3.38;100.00;153388.13;5080249;28;20541;-82
2022/11/30 09:49:55;;;;;;;47.65;30.50;;;;;;;3.30;100.00;153368.97;5100225;28;20389;-82
2022/11/30 09:52:43;;;;;;;52.45;31.88;;;;;;;3.24;100.00;153353.66;5087331;28;20040;-85
2022/11/30 09:55:13;;;;;;;53.70;32.88;;;;;;;3.34;100.00;153377.91;5081926;28;20036;-80
2022/11/30 09:57:47;;;;;;;50.90;31.20;;;;;;;3.38;100.00;153388.13;5085674;28;20428;-83
2022/11/30 10:00:16;;;;;;;52.10;33.10;;;;;;;3.34;100.00;153376.66;5080824;28;20043;-82
2022/11/30 10:02:42;;;;;;;59.60;34.45;;;;;;;3.23;100.00;153349.81;5083531;28;20548;-81
2022/11/30 10:05:22;;;;;;;57.40;33.78;;;;;;;3.29;100.00;153366.38;5099476;28;20032;-85
2022/11/30 10:08:04;;;;;;;57.58;33.83;;;;;;;3.36;100.00;153381.75;5085227;28;20110;-85
2022/11/30 10:10:39;;;;;;;61.53;34.22;;;;;;;3.24;100.00;153353.66;5093378;28;20176;-83
2022/11/30 10:13:49;;;;;;;68.75;36.70;;;;;;;3.36;100.00;153381.75;5097961;28;20611;-83
2022/11/30 10:16:45;;;;;;;64.20;35.35;;;;;;;3.19;100.00;153339.63;5097825;28;20031;-83
2022/11/30 10:19:41;;;;;;;61.17;35.95;;;;;;;3.31;100.00;153371.53;5089704;28;20040;-84
2022/11/30 10:22:16;;;;;;;65.97;36.22;;;;;;;3.33;100.00;153374.06;5085892;28;20455;-84
2022/11/30 10:29:15;;;;;;;67.72;36.08;;;;;;;3.37;100.00;153384.28;5127010;28;20034;-81
2022/11/30 10:31:42;;;;;;;69.32;37.63;;;;;;;3.24;100.00;153353.66;5101826;28;20028;-85
2022/11/30 10:34:22;;;;;;;72.63;38.13;;;;;;;3.38;100.00;153386.84;5080534;28;20039;-83
2022/11/30 10:37:00;;;;;;;69.60;36.78;;;;;;;3.40;100.00;153391.94;5092936;28;20043;-83
2022/11/30 10:39:34;;;;;;;67.53;37.58;;;;;;;3.20;100.00;153342.16;5092580;28;20489;-82
2022/11/30 10:42:09;;;;;;;70.22;38.90;;;;;;;3.20;100.00;153343.47;5089292;28;20039;-84
2022/11/30 10:44:41;;;;;;;74.82;38.65;;;;;;;3.28;100.00;153363.88;5088157;28;20035;-83
2022/11/30 10:47:13;;;;;;;71.07;37.72;;;;;;;3.37;100.00;153384.28;5079044;28;20093;-83
2022/11/30 10:49:47;;;;;;;75.28;40.25;;;;;;;3.17;100.00;153335.78;5102665;28;20135;-84
2022/11/30 10:55:28;;;;;;;73.97;40.10;;;;;;;3.28;100.00;153362.59;5116302;28;20421;-83
2022/11/30 10:57:59;;;;;;;72.47;39.92;;;;;;;3.28;100.00;153363.88;5120672;28;20102;-83
2022/11/30 11:00:25;;;;;;;72.35;40.17;;;;;;;3.33;100.00;153375.34;5078786;28;20054;-84
2022/11/30 11:02:52;;;;;;;72.57;39.47;;;;;;;3.38;100.00;153386.84;5110653;28;20043;-84
2022/11/30 11:05:22;;;;;;;79.50;41.40;;;;;;;3.34;100.00;153377.91;5085590;28;20032;-84
2022/11/30 11:07:53;;;;;;;78.25;40.60;;;;;;;3.22;100.00;153347.25;5093673;28;20127;-82
2022/11/30 11:10:36;;;;;;;76.28;41.50;;;;;;;3.29;100.00;153365.13;5108396;28;20043;-84
2022/11/30 11:13:02;;;;;;;75.57;39.90;;;;;;;3.35;100.00;153380.44;5094449;28;20047;-84
2022/11/30 11:15:31;;;;;;;83.53;41.58;;;;;;;3.34;100.00;153376.66;5083904;28;20032;-83
2022/11/30 11:18:15;;;;;;;72.35;40.53;;;;;;;3.40;100.00;153391.94;5076497;28;20035;-83
2022/11/30 11:20:43;;;;;;;79.10;41.15;;;;;;;3.39;100.00;153390.69;5107725;28;20055;-83
2022/11/30 11:23:31;;;;;;;72.25;39.55;;;;;;;3.33;100.00;153375.34;5089695;28;20043;-84
2022/11/30 11:25:57;;;;;;;76.65;40.17;;;;;;;3.25;100.00;153354.94;5071960;28;20034;-84
2022/11/30 11:28:24;;;;;;;69.28;39.05;;;;;;;3.35;100.00;153379.19;5099865;28;20035;-83